Currently 56°F in Lake Elsinore, California, USA
56°F
59°F / 56°F
1 mph NE
0.00"
Tuesday, October 15, 2019 2:33 AM PDT

Lake Elsinore, California Weather Summary
Last 36 Hours

Temperature Winds Hourly Humidity Dewpoint
Time Report Norm Report Norm Max Gusts Precip. Rpt. Norm Rpt. Norm Pressure
1Tue 02:33 AM  55.9°F  58°F  1 mph NE  calm  2 mph  0.00"  73%  78%  47°F  51°F  30.00"
3Tue 02:31 AM  55.8°F  58°F  2 mph NE  calm  2 mph  ----  73%  78%  47°F  51°F  30.00"
Tue 02:00 AM  56.2°F  59°F  1 mph NE  calm  3 mph  0.00"  74%  77%  48°F  51°F  30.00"
Tue 01:00 AM  57.6°F  60°F  calm  calm  none  0.00"  71%  76%  48°F  52°F  30.00"
2Tue 12:00 AM  58.8°F  61°F  calm  1 mph  none  0.00"  70%  74%  49°F  52°F  29.99"
Mon 11:00 PM  60.6°F  62°F  calm  1 mph  2 mph  0.00"  69%  71%  50°F  52°F  30.00"
Mon 10:00 PM  62.8°F  64°F  calm  1 mph  5 mph  0.00"  70%  69%  52°F  53°F  29.99"
Mon 09:00 PM  65.0°F  66°F  2 mph E  1 mph  6 mph  0.00"  66%  65%  53°F  53°F  29.97"
Mon 08:00 PM  67.4°F  68°F  calm  1 mph  5 mph  0.00"  52%  60%  49°F  53°F  29.95"
Mon 07:00 PM  71.0°F  72°F  1 mph W  2 mph  10 mph  0.00"  44%  54%  47°F  53°F  29.94"
Mon 06:00 PM  74.4°F  76°F  4 mph W  4 mph  11 mph  0.00"  36%  47%  45°F  53°F  29.91"
Mon 05:00 PM  81.2°F  81°F  3 mph NW  4 mph  8 mph  0.00"  24%  39%  40°F  53°F  29.91"
Mon 04:00 PM  82.9°F  83°F  2 mph W  4 mph  9 mph  0.00"  21%  36%  38°F  52°F  29.89"
Mon 03:00 PM  82.6°F  84°F  1 mph SW  3 mph  13 mph  0.00"  23%  34%  40°F  52°F  29.89"
Mon 02:00 PM  79.3°F  83°F  calm  3 mph  8 mph  0.00"  27%  35%  41°F  52°F  29.89"
Mon 01:00 PM  77.0°F  82°F  5 mph SE  2 mph  7 mph  0.00"  36%  37%  47°F  52°F  29.92"
Mon 12:00 PM  72.7°F  79°F  3 mph E  2 mph  7 mph  0.00"  43%  41%  48°F  53°F  29.95"
Mon 11:00 AM  70.3°F  76°F  2 mph SE  2 mph  7 mph  0.00"  47%  48%  48°F  54°F  29.97"
Mon 10:00 AM  68.0°F  71°F  2 mph S  2 mph  5 mph  0.00"  52%  58%  49°F  55°F  29.98"
Mon 09:00 AM  62.1°F  67°F  2 mph SW  1 mph  7 mph  0.00"  63%  68%  49°F  56°F  29.98"
Mon 08:00 AM  60.0°F  59°F  4 mph W  1 mph  7 mph  0.00"  66%  81%  48°F  53°F  29.96"
Mon 07:00 AM  59.3°F  56°F  6 mph W  calm  6 mph  0.00"  68%  82%  48°F  50°F  29.95"
Mon 06:00 AM  59.5°F  56°F  calm  1 mph  4 mph  0.00"  72%  81%  50°F  50°F  29.94"
Mon 05:00 AM  59.4°F  57°F  2 mph E  calm  3 mph  0.00"  73%  80%  51°F  50°F  29.93"
Mon 04:00 AM  58.5°F  57°F  calm  calm  3 mph  0.00"  74%  79%  50°F  51°F  29.92"
Mon 03:00 AM  57.1°F  58°F  calm  calm  none  0.00"  76%  78%  49°F  51°F  29.92"
Mon 02:00 AM  55.2°F  59°F  calm  calm  none  0.00"  77%  77%  48°F  51°F  29.93"
Mon 01:00 AM  56.1°F  60°F  calm  calm  2 mph  0.00"  74%  75%  48°F  51°F  29.92"
Mon 12:00 AM  57.7°F  61°F  2 mph W  calm  4 mph  0.00"  74%  73%  49°F  52°F  29.93"
Sun 11:00 PM  59.3°F  62°F  calm  1 mph  4 mph  0.00"  75%  71%  51°F  52°F  29.91"
Sun 10:00 PM  60.2°F  64°F  calm  1 mph  8 mph  0.00"  75%  68%  52°F  53°F  29.91"
Sun 09:00 PM  61.2°F  66°F  2 mph SE  1 mph  11 mph  0.00"  73%  64%  52°F  53°F  29.90"
Sun 08:00 PM  65.6°F  69°F  6 mph E  1 mph  12 mph  0.00"  62%  59%  52°F  53°F  29.89"
Sun 07:00 PM  69.4°F  72°F  4 mph E  2 mph  17 mph  0.00"  41%  53%  44°F  53°F  29.85"
Sun 06:00 PM  74.2°F  76°F  10 mph SW  3 mph  15 mph  0.00"  23%  46%  33°F  53°F  29.83"
Sun 05:00 PM  80.3°F  81°F  6 mph SW  4 mph  13 mph  0.00"  21%  39%  35°F  53°F  29.82"
Sun 04:00 PM  83.8°F  84°F  3 mph S  5 mph  15 mph  0.00"  18%  35%  34°F  52°F  29.83"
Sun 03:00 PM  85.3°F  84°F  4 mph SW  4 mph  16 mph  0.00"  20%  34%  38°F  51°F  29.82"

  1. Current weather data. No green row appears if the current weather data is also the high or low for the current day.
  2. High temperature for the current day.
  3. Low temperature for the current day.

The Lake Elsinore, California weather pages are a service of WeatherCurrents. Lake Elsinore is located south of Corona and north of the Temecula Valley, in southwestern Riverside County, California.
Copyright ©2019  WeatherCurrents. All rights reserved. - Submit questions and comments - Privacy Policy

This page automatically refreshes every 10 minutes.